createdAt,value
2023-12-10T00:07:02.659Z,19.80
2023-12-10T00:16:59.993Z,21.10
2023-12-10T00:26:59.977Z,21.30
2023-12-10T00:36:59.993Z,22.90
2023-12-10T00:46:59.967Z,22.80
2023-12-10T00:56:59.979Z,20.50
2023-12-10T01:07:00.267Z,24.80
2023-12-10T01:16:59.965Z,20.70
2023-12-10T01:26:59.977Z,24.20
2023-12-10T01:37:00.044Z,23.80
2023-12-10T01:47:00.032Z,25.90
2023-12-10T01:57:06.616Z,21.00
2023-12-10T02:07:00.011Z,22.60
2023-12-10T02:17:00.017Z,23.40
2023-12-10T02:27:00.042Z,23.00
2023-12-10T02:37:00.200Z,23.80
2023-12-10T02:47:00.077Z,21.50
2023-12-10T02:57:00.034Z,24.00
2023-12-10T03:07:00.057Z,23.20
2023-12-10T03:17:00.054Z,20.00
2023-12-10T03:27:00.064Z,20.80
2023-12-10T03:37:00.044Z,19.10
2023-12-10T03:47:00.062Z,21.20
2023-12-10T03:57:00.056Z,23.50
2023-12-10T04:07:00.064Z,23.00
2023-12-10T04:17:00.181Z,24.20
2023-12-10T04:27:00.129Z,19.90
2023-12-10T04:37:00.158Z,22.70
2023-12-10T04:47:00.114Z,21.70
2023-12-10T04:57:00.090Z,19.40
2023-12-10T05:07:00.113Z,20.00
2023-12-10T05:17:00.097Z,19.90
2023-12-10T05:27:00.093Z,22.00
2023-12-10T05:37:00.158Z,18.10
2023-12-10T05:47:00.102Z,17.10
2023-12-10T05:57:00.217Z,19.10
2023-12-10T06:07:00.164Z,20.10
2023-12-10T06:17:00.117Z,23.00
2023-12-10T06:27:00.095Z,18.40
2023-12-10T06:37:00.150Z,23.90
2023-12-10T06:47:00.101Z,23.70
2023-12-10T06:57:00.245Z,17.60
2023-12-10T07:07:00.132Z,23.10
2023-12-10T07:27:00.132Z,23.80
2023-12-10T07:37:00.280Z,24.70
2023-12-10T07:47:00.208Z,22.50
2023-12-10T07:57:00.127Z,22.30
2023-12-10T08:07:00.210Z,22.60
2023-12-10T08:17:03.390Z,19.20
2023-12-10T08:27:00.171Z,22.00
2023-12-10T08:37:00.196Z,22.50
2023-12-10T08:47:00.123Z,20.10
2023-12-10T08:57:00.364Z,19.30
2023-12-10T09:07:00.223Z,22.20
2023-12-10T09:17:00.181Z,23.10
2023-12-10T09:27:00.243Z,23.70
2023-12-10T09:37:00.295Z,20.30
2023-12-10T09:47:01.321Z,17.60
2023-12-10T09:57:00.201Z,19.70
2023-12-10T10:07:00.226Z,21.50
2023-12-10T10:17:00.248Z,18.30
2023-12-10T10:27:00.239Z,20.30
2023-12-10T10:37:00.252Z,24.70
2023-12-10T10:47:00.294Z,22.00
2023-12-10T10:57:00.204Z,19.60
2023-12-10T11:07:00.445Z,20.90
2023-12-10T11:17:00.201Z,20.70
2023-12-10T11:27:00.214Z,23.70
2023-12-10T11:37:00.430Z,23.10
2023-12-10T11:47:00.274Z,22.40
2023-12-10T11:57:00.203Z,24.00
2023-12-10T12:07:00.464Z,23.20
2023-12-10T12:27:00.214Z,23.50
2023-12-10T12:37:00.342Z,22.70
2023-12-10T12:47:00.232Z,23.70
2023-12-10T12:57:00.226Z,21.70
2023-12-10T13:07:00.304Z,22.70
2023-12-10T13:17:00.226Z,22.10
2023-12-10T13:27:00.360Z,25.60
2023-12-10T13:37:00.508Z,25.40
2023-12-10T13:47:00.248Z,26.40
2023-12-10T13:57:00.256Z,26.70
2023-12-10T14:07:00.313Z,26.50
2023-12-10T14:17:00.241Z,26.40
2023-12-10T14:27:00.245Z,27.70
2023-12-10T14:37:00.505Z,27.60
2023-12-10T14:47:00.267Z,26.50
2023-12-10T14:57:00.314Z,28.80
2023-12-10T15:07:00.351Z,26.00
2023-12-10T15:17:00.337Z,25.40
2023-12-10T15:27:00.406Z,25.70
2023-12-10T15:37:00.327Z,25.60
2023-12-10T15:47:00.273Z,23.00
2023-12-10T15:57:00.409Z,20.50
2023-12-10T16:07:00.612Z,26.20
2023-12-10T16:17:00.293Z,28.00
2023-12-10T16:27:02.894Z,29.30
2023-12-10T16:37:00.360Z,26.70
2023-12-10T16:47:00.345Z,21.90
2023-12-10T16:57:03.159Z,23.00
2023-12-10T17:17:00.426Z,23.70
2023-12-10T17:27:00.324Z,22.10
2023-12-10T17:37:00.375Z,25.30
2023-12-10T17:47:01.099Z,23.00
2023-12-10T17:57:00.343Z,21.90
2023-12-10T18:07:00.428Z,22.10
2023-12-10T18:17:00.328Z,20.90
2023-12-10T18:27:00.458Z,19.70
2023-12-10T18:37:00.379Z,22.60
2023-12-10T18:47:00.358Z,21.40
2023-12-10T18:57:00.353Z,19.20
2023-12-10T19:07:00.376Z,21.40
2023-12-10T19:17:00.362Z,19.70
2023-12-10T19:27:00.370Z,19.30
2023-12-10T19:37:00.393Z,18.90
2023-12-10T19:47:03.687Z,19.70
2023-12-10T19:57:00.416Z,20.40
2023-12-10T20:07:00.467Z,20.60
2023-12-10T20:17:00.397Z,19.80
2023-12-10T20:27:00.387Z,19.60
2023-12-10T20:37:00.470Z,19.50
2023-12-10T20:47:00.548Z,19.00
2023-12-10T20:57:00.432Z,19.50
2023-12-10T21:07:00.459Z,18.80
2023-12-10T21:17:00.385Z,20.10
2023-12-10T21:27:00.411Z,22.00
2023-12-10T21:47:00.406Z,20.40
2023-12-10T21:57:00.396Z,20.90
2023-12-10T22:07:00.416Z,19.20
2023-12-10T22:17:03.126Z,18.00
2023-12-10T22:27:00.419Z,18.30
2023-12-10T22:37:00.550Z,16.90
2023-12-10T22:47:00.436Z,16.30
2023-12-10T22:57:00.420Z,18.40
2023-12-10T23:07:00.508Z,17.80
2023-12-10T23:17:00.453Z,18.20
2023-12-10T23:27:00.437Z,19.10
2023-12-10T23:37:00.491Z,20.90
2023-12-10T23:47:00.458Z,20.50
